Terminal Aerodrome Forecast
Issued by NWS Sterling, VA

Current Version | Previous Version | Text Only | Print | Product List | Glossary On
Versions: 1 2 3 4 5 6 7 8 9 10 11 12 13 14 15 16 17 18 19 20 21 22
143
FTUS41 KLWX 170204 AAA
TAFCHO
TAF AMD
KCHO 170204Z 1702/1724 VRB03KT 4SM BR OVC008
     FM170600 VRB03KT 2SM BR OVC008
     FM171200 20004KT 1 1/2SM BR OVC015
     FM171500 19005KT 3/4SM -RA BR OVC008
     FM171800 20008KT 3SM -RA BR OVC008
     FM172100 20009KT P6SM OVC015
     FM172300 21009KT P6SM OVC020=

USA.gov is the U.S. government's official web portal to all federal, state and local government web resources and services.